Time;durP1;ratioP1;P1;durP2;ratioP2;P2;SDS_P1;SDS_P2;PMS_P1;PMS_P2;Temp;Humidity;BMP_temperature;BMP_pressure;BME280_temperature;BME280_humidity;BME280_pressure;Samples;Min_cycle;Max_cycle;Signal;HPM_P1;HPM_P2
2021/09/20 00:01:47;;;;;;;3.00;2.27;;;13.10;99.90;;;;;;5056465;28;20455;-72
2021/09/20 00:04:14;;;;;;;5.63;2.83;;;13.10;99.90;;;;;;5056346;28;20474;-72
2021/09/20 00:06:42;;;;;;;3.40;2.33;;;13.10;99.90;;;;;;5056261;28;20923;-72
2021/09/20 00:09:09;;;;;;;2.43;2.20;;;13.10;99.90;;;;;;5056829;28;20451;-72
2021/09/20 00:11:36;;;;;;;4.07;2.40;;;13.10;99.90;;;;;;5056518;28;20456;-72
2021/09/20 00:14:02;;;;;;;3.43;2.43;;;13.10;99.90;;;;;;5056353;28;20464;-72
2021/09/20 00:16:29;;;;;;;3.23;2.30;;;13.10;99.90;;;;;;5054804;28;20480;-72
2021/09/20 00:18:58;;;;;;;3.43;2.30;;;13.10;99.90;;;;;;5055742;28;20480;-72
2021/09/20 00:21:26;;;;;;;3.03;2.53;;;13.10;99.90;;;;;;5056560;28;20460;-72
2021/09/20 00:23:54;;;;;;;2.53;2.10;;;13.00;99.90;;;;;;5056260;28;20466;-74
2021/09/20 00:26:21;;;;;;;2.80;2.23;;;13.00;99.90;;;;;;5055961;28;20464;-72
2021/09/20 00:28:47;;;;;;;3.10;2.40;;;13.00;99.90;;;;;;5056351;28;20459;-72
2021/09/20 00:31:14;;;;;;;2.87;2.50;;;13.00;99.90;;;;;;5055828;28;20475;-72
2021/09/20 00:33:41;;;;;;;3.03;2.40;;;13.00;99.90;;;;;;5055918;28;20916;-72
2021/09/20 00:36:08;;;;;;;3.00;2.70;;;13.00;99.90;;;;;;5056140;28;20460;-72
2021/09/20 00:38:34;;;;;;;3.53;2.23;;;13.00;99.90;;;;;;5055477;28;20472;-72
2021/09/20 00:41:03;;;;;;;3.80;2.03;;;13.00;99.90;;;;;;5055883;28;20470;-72
2021/09/20 00:43:29;;;;;;;6.20;2.73;;;13.00;99.90;;;;;;5055398;28;20560;-72
2021/09/20 00:45:59;;;;;;;2.93;2.47;;;13.00;99.90;;;;;;5055512;28;20505;-72
2021/09/20 00:48:27;;;;;;;3.70;2.20;;;12.90;99.90;;;;;;5055486;28;20462;-72
2021/09/20 00:50:56;;;;;;;3.10;2.30;;;13.00;99.90;;;;;;5055510;28;20451;-72
2021/09/20 00:53:22;;;;;;;3.50;2.77;;;13.00;99.90;;;;;;5055921;28;20542;-72
2021/09/20 00:55:49;;;;;;;4.07;2.60;;;12.90;99.90;;;;;;5055803;28;20769;-72
2021/09/20 00:58:19;;;;;;;2.87;2.40;;;12.90;99.90;;;;;;5055152;28;20454;-72
2021/09/20 01:00:45;;;;;;;6.90;2.60;;;12.90;99.90;;;;;;5055290;28;20550;-72
2021/09/20 01:03:12;;;;;;;4.00;2.60;;;12.90;99.90;;;;;;5055378;28;20522;-72
2021/09/20 01:05:39;;;;;;;3.53;2.23;;;12.90;99.90;;;;;;5055949;28;20462;-72
2021/09/20 01:08:06;;;;;;;3.80;3.27;;;12.90;99.90;;;;;;5054960;28;20474;-72
2021/09/20 01:10:32;;;;;;;3.60;2.63;;;12.90;99.90;;;;;;5055947;28;20460;-72
2021/09/20 01:12:59;;;;;;;4.00;2.60;;;12.90;99.90;;;;;;5055213;28;20468;-72
2021/09/20 01:15:27;;;;;;;5.50;2.60;;;12.90;99.90;;;;;;5054870;28;20495;-72
2021/09/20 01:17:54;;;;;;;3.60;2.43;;;12.90;99.90;;;;;;5054913;28;20466;-76
2021/09/20 01:20:22;;;;;;;3.27;2.60;;;12.90;99.90;;;;;;5055244;28;20476;-72
2021/09/20 01:22:59;;;;;;;2.90;2.60;;;13.00;99.90;;;;;;5055031;28;20463;-72
2021/09/20 01:25:30;;;;;;;5.63;3.23;;;13.00;99.90;;;;;;5055109;28;20468;-72
2021/09/20 01:27:57;;;;;;;4.10;2.70;;;13.00;99.90;;;;;;5054548;28;20467;-72
2021/09/20 01:30:24;;;;;;;3.37;2.30;;;12.90;99.90;;;;;;5054714;28;20454;-72
2021/09/20 01:32:51;;;;;;;4.53;2.83;;;12.90;99.90;;;;;;5054796;28;20455;-72
2021/09/20 01:35:19;;;;;;;3.50;2.37;;;12.90;99.90;;;;;;5054832;28;20470;-72
2021/09/20 01:37:46;;;;;;;3.20;2.87;;;12.90;99.90;;;;;;5054559;28;20942;-72
2021/09/20 01:40:15;;;;;;;2.73;2.20;;;12.90;99.90;;;;;;5054693;28;20581;-72
2021/09/20 01:42:42;;;;;;;2.80;2.47;;;12.90;99.90;;;;;;5054767;28;20527;-72
2021/09/20 01:45:11;;;;;;;5.60;2.80;;;12.90;99.90;;;;;;5053972;28;20466;-72
2021/09/20 01:47:37;;;;;;;4.22;2.95;;;12.90;99.90;;;;;;5055076;28;20903;-74
2021/09/20 01:50:07;;;;;;;2.90;2.33;;;12.90;99.90;;;;;;5054497;28;20202;-71
2021/09/20 01:52:34;;;;;;;4.67;2.77;;;12.90;99.90;;;;;;5054677;28;20468;-71
2021/09/20 01:55:01;;;;;;;3.00;2.23;;;12.90;99.90;;;;;;5054535;28;20833;-71
2021/09/20 01:57:29;;;;;;;3.23;2.80;;;12.90;99.90;;;;;;5054424;28;20467;-71
2021/09/20 01:59:56;;;;;;;3.33;2.70;;;12.90;99.90;;;;;;5054190;28;20480;-71
2021/09/20 02:02:22;;;;;;;2.83;2.53;;;12.90;99.90;;;;;;5054179;28;20463;-71
2021/09/20 02:04:49;;;;;;;5.03;3.10;;;12.90;99.90;;;;;;5054228;28;20514;-71
2021/09/20 02:07:16;;;;;;;2.73;2.13;;;12.90;99.90;;;;;;5054696;28;20465;-71
2021/09/20 02:09:43;;;;;;;2.97;2.67;;;12.90;99.90;;;;;;5055087;28;20459;-71
2021/09/20 02:12:10;;;;;;;4.13;2.80;;;12.90;99.90;;;;;;5054398;28;20471;-71
2021/09/20 02:14:38;;;;;;;3.70;2.97;;;12.90;99.90;;;;;;5054274;28;20783;-71
2021/09/20 02:17:07;;;;;;;4.83;3.23;;;12.90;99.90;;;;;;5054024;28;20450;-71
2021/09/20 02:19:34;;;;;;;6.37;2.60;;;12.90;99.90;;;;;;5053838;28;20956;-71
2021/09/20 02:22:01;;;;;;;2.80;2.13;;;12.90;99.90;;;;;;5054319;28;20463;-71
2021/09/20 02:24:28;;;;;;;4.67;2.83;;;12.80;99.90;;;;;;5054352;28;20482;-71
2021/09/20 02:26:54;;;;;;;5.10;2.50;;;12.80;99.90;;;;;;5053956;28;20773;-71
2021/09/20 02:29:21;;;;;;;4.50;2.80;;;12.80;99.90;;;;;;5054226;28;20612;-72
2021/09/20 02:31:49;;;;;;;4.90;2.60;;;12.80;99.90;;;;;;5053986;28;20500;-71
2021/09/20 02:34:17;;;;;;;4.00;2.60;;;12.80;99.90;;;;;;5054172;28;20455;-71
2021/09/20 02:36:44;;;;;;;4.50;2.83;;;12.80;99.90;;;;;;5054268;28;20456;-71
2021/09/20 02:39:11;;;;;;;3.20;2.40;;;12.80;99.90;;;;;;5055928;28;20471;-71
2021/09/20 02:41:38;;;;;;;3.70;2.40;;;12.80;99.90;;;;;;5057540;28;20464;-71
2021/09/20 02:44:05;;;;;;;4.50;2.30;;;12.80;99.90;;;;;;5057940;28;20474;-71
2021/09/20 02:46:32;;;;;;;4.00;2.67;;;12.80;99.90;;;;;;5058668;28;20465;-71
2021/09/20 02:49:00;;;;;;;2.90;2.50;;;12.80;99.90;;;;;;5058830;28;20460;-71
2021/09/20 02:51:26;;;;;;;2.60;2.40;;;12.80;99.90;;;;;;5058313;28;20931;-72
2021/09/20 02:53:53;;;;;;;3.90;2.67;;;12.80;99.90;;;;;;5057742;28;20513;-72
2021/09/20 02:56:20;;;;;;;5.17;3.13;;;12.80;99.90;;;;;;5059002;28;20459;-72
2021/09/20 02:58:46;;;;;;;4.57;3.03;;;12.80;99.90;;;;;;5058005;28;20467;-72
2021/09/20 03:01:13;;;;;;;3.40;2.10;;;12.80;99.90;;;;;;5058621;28;20571;-72
2021/09/20 03:03:40;;;;;;;6.50;3.10;;;12.80;99.90;;;;;;5057800;28;20456;-71
2021/09/20 03:06:08;;;;;;;4.80;3.63;;;12.80;99.90;;;;;;5057888;28;20455;-72
2021/09/20 03:08:34;;;;;;;3.10;2.53;;;12.80;99.90;;;;;;5057814;28;20467;-72
2021/09/20 03:11:01;;;;;;;3.53;2.97;;;12.80;99.90;;;;;;5057650;28;20779;-72
2021/09/20 03:13:28;;;;;;;4.60;3.00;;;12.80;99.90;;;;;;5057539;28;20455;-72
2021/09/20 03:15:54;;;;;;;3.10;2.60;;;12.80;99.90;;;;;;5057237;28;20485;-72
2021/09/20 03:18:21;;;;;;;2.60;2.40;;;12.80;99.90;;;;;;5057873;28;20464;-72
2021/09/20 03:20:48;;;;;;;3.97;3.30;;;12.80;99.90;;;;;;5057338;28;20485;-72
2021/09/20 03:23:16;;;;;;;4.97;2.80;;;12.90;99.90;;;;;;5057160;28;20474;-72
2021/09/20 03:25:44;;;;;;;3.03;2.30;;;12.90;99.90;;;;;;5057238;28;20466;-72
2021/09/20 03:28:11;;;;;;;3.13;2.73;;;12.90;99.90;;;;;;5057109;28;20461;-72
2021/09/20 03:30:38;;;;;;;4.60;3.10;;;12.80;99.90;;;;;;5056563;28;20459;-72
2021/09/20 03:33:04;;;;;;;5.83;2.87;;;12.80;99.90;;;;;;5057055;28;20462;-71
2021/09/20 03:35:31;;;;;;;7.50;3.17;;;12.80;99.90;;;;;;5056787;28;20943;-72
2021/09/20 03:37:58;;;;;;;4.17;3.10;;;12.80;99.90;;;;;;5056779;28;20525;-72
2021/09/20 03:40:26;;;;;;;4.37;2.83;;;12.80;99.90;;;;;;5056704;28;20476;-72
2021/09/20 03:42:53;;;;;;;4.10;3.30;;;12.80;99.90;;;;;;5056760;28;20482;-72
2021/09/20 03:45:19;;;;;;;6.07;2.63;;;12.80;99.90;;;;;;5056819;28;20459;-72
2021/09/20 03:47:46;;;;;;;10.27;3.30;;;12.80;99.90;;;;;;5056255;28;20460;-72
2021/09/20 03:50:13;;;;;;;5.23;3.30;;;12.80;99.90;;;;;;5055521;28;20509;-72
2021/09/20 03:52:42;;;;;;;5.43;2.87;;;12.80;99.90;;;;;;5056708;28;20796;-72
2021/09/20 03:55:10;;;;;;;3.70;2.10;;;12.80;99.90;;;;;;5056625;28;20487;-72
2021/09/20 03:57:38;;;;;;;5.27;3.03;;;12.80;99.90;;;;;;5056733;28;20467;-72
2021/09/20 04:00:06;;;;;;;6.50;3.30;;;12.80;99.90;;;;;;5056314;28;20483;-72
2021/09/20 04:02:34;;;;;;;5.53;3.10;;;12.80;99.90;;;;;;5056328;28;20459;-72
2021/09/20 04:05:02;;;;;;;4.13;2.50;;;12.80;99.90;;;;;;5056265;28;20917;-72
2021/09/20 04:07:29;;;;;;;3.10;2.80;;;12.80;99.90;;;;;;5056535;28;20472;-72
2021/09/20 04:09:56;;;;;;;3.30;2.70;;;12.80;99.90;;;;;;5056887;28;20470;-72
2021/09/20 04:12:22;;;;;;;3.40;3.00;;;12.80;99.90;;;;;;5056667;28;20472;-72
2021/09/20 04:14:50;;;;;;;2.93;2.57;;;12.80;99.90;;;;;;5056460;28;20479;-72
2021/09/20 04:17:17;;;;;;;5.40;3.03;;;12.80;99.90;;;;;;5056100;28;20876;-72
2021/09/20 04:19:44;;;;;;;4.27;2.93;;;12.80;99.90;;;;;;5056623;28;20920;-72
2021/09/20 04:22:10;;;;;;;3.90;2.70;;;12.80;99.90;;;;;;5056543;28;20459;-72
2021/09/20 04:24:37;;;;;;;5.07;4.20;;;12.80;99.90;;;;;;5056816;28;20541;-72
2021/09/20 04:27:04;;;;;;;5.07;3.10;;;12.80;99.90;;;;;;5056265;28;20452;-72
2021/09/20 04:29:31;;;;;;;5.53;3.07;;;12.80;99.90;;;;;;5056455;28;20460;-72
2021/09/20 04:31:59;;;;;;;7.00;3.83;;;12.80;99.90;;;;;;5056314;28;20517;-72
2021/09/20 04:34:26;;;;;;;3.87;3.10;;;12.80;99.90;;;;;;5055843;28;20488;-72
2021/09/20 04:36:53;;;;;;;4.33;2.90;;;12.80;99.90;;;;;;5056132;28;20463;-72
2021/09/20 04:39:20;;;;;;;3.43;2.90;;;12.80;99.90;;;;;;5055432;28;20457;-72
2021/09/20 04:41:47;;;;;;;3.43;3.13;;;12.80;99.90;;;;;;5055727;28;20586;-72
2021/09/20 04:44:14;;;;;;;4.40;3.10;;;12.80;99.90;;;;;;5055688;28;20460;-72
2021/09/20 04:46:40;;;;;;;4.57;3.40;;;12.70;99.90;;;;;;5055869;28;20463;-71
2021/09/20 04:49:08;;;;;;;4.03;3.57;;;12.70;99.90;;;;;;5055425;28;20460;-71
2021/09/20 04:51:35;;;;;;;5.43;3.00;;;12.70;99.90;;;;;;5055715;28;20769;-72
2021/09/20 04:54:05;;;;;;;4.40;3.70;;;12.70;99.90;;;;;;5055660;28;20827;-71
2021/09/20 04:56:31;;;;;;;4.40;3.43;;;12.70;99.90;;;;;;5055128;28;20914;-71
2021/09/20 04:58:58;;;;;;;4.40;3.20;;;12.70;99.90;;;;;;5055614;28;20460;-72
2021/09/20 05:01:25;;;;;;;4.30;3.33;;;12.70;99.90;;;;;;5054548;28;20485;-72
2021/09/20 05:03:51;;;;;;;5.63;2.97;;;12.70;99.90;;;;;;5055687;28;20455;-72
2021/09/20 05:06:19;;;;;;;5.07;3.17;;;12.70;99.90;;;;;;5055213;28;20455;-72
2021/09/20 05:08:46;;;;;;;4.47;3.17;;;12.70;99.90;;;;;;5055427;28;20767;-72
2021/09/20 05:11:13;;;;;;;8.13;3.33;;;12.70;99.90;;;;;;5055109;28;20521;-72
2021/09/20 05:13:40;;;;;;;5.17;3.37;;;12.70;99.90;;;;;;5055197;28;20540;-72
2021/09/20 05:16:06;;;;;;;5.13;3.17;;;12.60;99.90;;;;;;5054991;28;20813;-72
2021/09/20 05:18:33;;;;;;;4.03;3.33;;;12.60;99.90;;;;;;5055144;28;20524;-72
2021/09/20 05:21:00;;;;;;;4.77;3.53;;;12.70;99.90;;;;;;5054943;28;20478;-72
2021/09/20 05:23:28;;;;;;;4.40;3.10;;;12.70;99.90;;;;;;5055169;28;20453;-72
2021/09/20 05:25:56;;;;;;;3.87;2.73;;;12.70;99.90;;;;;;5054831;28;20578;-72
2021/09/20 05:28:24;;;;;;;3.77;2.97;;;12.70;99.90;;;;;;5054834;28;20768;-72
2021/09/20 05:30:51;;;;;;;3.13;2.80;;;12.70;99.90;;;;;;5055105;28;20456;-72
2021/09/20 05:33:18;;;;;;;5.97;2.87;;;12.70;99.90;;;;;;5054555;28;20464;-72
2021/09/20 05:35:47;;;;;;;4.00;2.97;;;12.80;99.90;;;;;;5054702;28;20470;-72
2021/09/20 05:38:14;;;;;;;5.40;3.50;;;12.80;99.90;;;;;;5055116;28;20462;-72
2021/09/20 05:40:43;;;;;;;5.43;3.30;;;12.80;99.90;;;;;;5054471;28;20535;-72
2021/09/20 05:43:10;;;;;;;4.77;3.23;;;12.90;99.90;;;;;;5054864;28;20471;-72
2021/09/20 05:45:37;;;;;;;6.00;3.57;;;12.90;99.90;;;;;;5054633;28;20461;-72
2021/09/20 05:48:05;;;;;;;6.83;3.23;;;12.90;99.90;;;;;;5054670;28;20481;-72
2021/09/20 05:50:34;;;;;;;6.37;3.40;;;13.00;99.90;;;;;;5054724;28;20463;-72
2021/09/20 05:53:01;;;;;;;4.60;3.60;;;13.00;99.90;;;;;;5054416;28;20472;-72
2021/09/20 05:55:28;;;;;;;7.60;3.50;;;13.00;99.90;;;;;;5054381;28;21010;-72
2021/09/20 05:57:56;;;;;;;4.70;3.13;;;13.00;99.90;;;;;;5054606;28;20456;-72
2021/09/20 06:00:23;;;;;;;4.53;3.33;;;13.10;99.90;;;;;;5054576;28;20460;-72
2021/09/20 06:02:50;;;;;;;6.30;2.80;;;13.10;99.90;;;;;;5055023;28;20461;-72
2021/09/20 06:05:17;;;;;;;4.10;2.70;;;13.10;99.90;;;;;;5054979;28;20457;-72
2021/09/20 06:07:44;;;;;;;4.23;3.23;;;13.20;99.90;;;;;;5054418;28;20457;-72
2021/09/20 06:10:13;;;;;;;6.10;3.73;;;13.20;99.90;;;;;;5054405;28;20463;-72
2021/09/20 06:12:40;;;;;;;5.10;3.23;;;13.20;99.90;;;;;;5054198;28;20471;-72
2021/09/20 06:15:10;;;;;;;4.77;3.23;;;13.20;99.90;;;;;;5058185;28;20820;-72
2021/09/20 06:17:37;;;;;;;6.20;3.50;;;13.30;99.90;;;;;;5058369;28;20443;-72
2021/09/20 06:20:05;;;;;;;4.40;2.90;;;13.30;99.90;;;;;;5058392;28;20797;-72
2021/09/20 06:22:31;;;;;;;2.90;2.60;;;13.40;99.90;;;;;;5057906;28;20485;-72
2021/09/20 06:24:59;;;;;;;6.00;3.00;;;13.40;99.90;;;;;;5057695;28;20466;-72
2021/09/20 06:27:29;;;;;;;5.97;3.40;;;13.40;99.90;;;;;;5057833;28;20478;-72
2021/09/20 06:29:56;;;;;;;3.83;2.77;;;13.40;99.90;;;;;;5058973;28;20553;-72
2021/09/20 06:32:24;;;;;;;3.70;2.97;;;13.50;99.90;;;;;;5057798;28;20468;-71
2021/09/20 06:34:51;;;;;;;4.97;2.93;;;13.50;99.90;;;;;;5058335;28;20485;-71
2021/09/20 06:37:17;;;;;;;4.17;2.70;;;13.50;99.90;;;;;;5058142;28;20458;-71
2021/09/20 06:39:44;;;;;;;5.73;3.60;;;13.60;99.90;;;;;;5057660;28;20559;-71
2021/09/20 06:42:11;;;;;;;4.83;2.80;;;13.60;99.90;;;;;;5057929;28;20491;-72
2021/09/20 06:44:38;;;;;;;3.57;2.83;;;13.70;99.90;;;;;;5057417;28;20911;-71
2021/09/20 06:47:05;;;;;;;4.23;3.00;;;13.70;99.90;;;;;;5057814;28;20467;-71
2021/09/20 06:49:36;;;;;;;5.50;3.07;;;13.70;99.90;;;;;;5057699;28;20459;-72
2021/09/20 06:52:05;;;;;;;3.77;3.37;;;13.70;99.90;;;;;;5057852;28;20452;-71
2021/09/20 06:54:31;;;;;;;5.10;3.00;;;13.70;99.90;;;;;;5057779;28;20464;-72
2021/09/20 06:56:58;;;;;;;4.50;3.27;;;13.80;99.90;;;;;;5057073;28;20455;-71
2021/09/20 06:59:25;;;;;;;4.17;3.33;;;13.80;99.90;;;;;;5057853;28;20455;-71
2021/09/20 07:01:52;;;;;;;3.37;3.00;;;13.80;99.90;;;;;;5057435;28;20939;-74
2021/09/20 07:04:18;;;;;;;3.93;2.70;;;13.90;99.90;;;;;;5057234;28;20469;-72
2021/09/20 07:06:46;;;;;;;2.60;2.40;;;14.00;99.90;;;;;;5057326;28;20457;-72
2021/09/20 07:09:13;;;;;;;4.03;2.83;;;14.00;99.90;;;;;;5057466;28;20899;-72
2021/09/20 07:11:40;;;;;;;3.27;2.97;;;14.10;99.90;;;;;;5057390;28;20473;-72
2021/09/20 07:14:07;;;;;;;4.37;3.20;;;14.10;99.90;;;;;;5056916;28;20462;-72
2021/09/20 07:16:34;;;;;;;5.70;3.13;;;14.20;99.90;;;;;;5056778;28;20497;-72
2021/09/20 07:19:06;;;;;;;3.63;2.70;;;14.30;99.90;;;;;;5056855;28;20459;-72
2021/09/20 07:21:32;;;;;;;4.37;3.63;;;14.30;99.90;;;;;;5057095;28;20475;-72
2021/09/20 07:24:04;;;;;;;6.80;4.00;;;14.40;99.90;;;;;;5056652;28;20767;-72
2021/09/20 07:26:31;;;;;;;3.63;2.57;;;14.50;99.90;;;;;;5057143;28;20461;-72
2021/09/20 07:28:59;;;;;;;6.10;3.40;;;14.60;99.90;;;;;;5056949;28;20458;-72
2021/09/20 07:31:26;;;;;;;5.00;2.83;;;14.70;99.90;;;;;;5057035;28;20485;-72
2021/09/20 07:33:54;;;;;;;4.07;2.53;;;14.70;99.90;;;;;;5057381;28;20460;-72
2021/09/20 07:36:21;;;;;;;3.77;2.73;;;14.80;99.90;;;;;;5057099;28;20551;-72
2021/09/20 07:38:48;;;;;;;3.83;3.33;;;14.80;99.90;;;;;;5056979;28;20567;-72
2021/09/20 07:41:16;;;;;;;3.20;2.60;;;14.80;99.90;;;;;;5056806;28;20618;-72
2021/09/20 07:43:45;;;;;;;2.83;2.40;;;14.80;99.90;;;;;;5056859;28;20520;-72
2021/09/20 07:46:12;;;;;;;3.93;2.70;;;14.80;99.90;;;;;;5056800;28;20455;-72
2021/09/20 07:48:41;;;;;;;5.40;2.93;;;14.90;99.90;;;;;;5056913;28;20605;-72
2021/09/20 07:51:08;;;;;;;3.80;2.73;;;15.00;99.90;;;;;;5056849;28;20463;-72
2021/09/20 07:53:34;;;;;;;3.60;2.73;;;15.10;99.90;;;;;;5056530;28;20467;-72
2021/09/20 07:56:01;;;;;;;3.60;2.47;;;15.10;99.90;;;;;;5056429;28;20467;-72
2021/09/20 07:58:29;;;;;;;3.80;2.60;;;15.20;99.90;;;;;;5056294;28;20551;-72
2021/09/20 08:00:56;;;;;;;3.90;2.83;;;15.20;99.90;;;;;;5056469;28;20463;-72
2021/09/20 08:03:23;;;;;;;3.10;2.57;;;15.30;99.90;;;;;;5056438;28;20525;-72
2021/09/20 08:05:50;;;;;;;4.30;2.80;;;15.40;99.90;;;;;;5056447;28;20535;-72
2021/09/20 08:08:16;;;;;;;4.00;2.50;;;15.40;99.90;;;;;;5056288;28;20542;-72
2021/09/20 08:10:43;;;;;;;2.90;2.60;;;15.50;76.10;;;;;;5056115;28;20521;-72
2021/09/20 08:13:10;;;;;;;6.13;3.43;;;15.50;42.20;;;;;;5056539;28;20459;-72
2021/09/20 08:15:41;;;;;;;3.70;2.47;;;15.60;1.00;;;;;;5055729;28;20501;-72
2021/09/20 08:18:10;;;;;;;5.00;2.60;;;15.60;1.00;;;;;;5056297;28;20454;-72
2021/09/20 08:20:37;;;;;;;2.83;2.60;;;15.60;1.00;;;;;;5056117;28;20456;-72
2021/09/20 08:23:04;;;;;;;3.30;2.93;;;15.60;1.00;;;;;;5055845;28;20857;-72
2021/09/20 08:25:33;;;;;;;5.30;3.27;;;15.70;1.00;;;;;;5056204;28;20463;-72
2021/09/20 08:28:00;;;;;;;4.50;2.97;;;15.70;1.00;;;;;;5056053;28;20460;-72
2021/09/20 08:30:28;;;;;;;3.83;2.70;;;15.70;1.00;;;;;;5056089;28;20463;-73
2021/09/20 08:32:57;;;;;;;8.87;3.50;;;15.70;1.00;;;;;;5055910;28;20463;-73
2021/09/20 08:35:23;;;;;;;5.13;2.80;;;15.80;1.00;;;;;;5057212;28;20780;-72
2021/09/20 08:37:50;;;;;;;3.20;2.90;;;15.80;1.00;;;;;;5057366;28;20456;-73
2021/09/20 08:40:19;;;;;;;5.53;3.27;;;15.80;1.00;;;;;;5056098;28;20455;-72
2021/09/20 08:42:46;;;;;;;2.70;2.50;;;15.90;99.90;;;;;;5055887;28;20479;-72
2021/09/20 08:45:17;;;;;;;2.83;2.60;;;15.90;99.90;;;;;;5057072;28;20822;-72
2021/09/20 08:47:46;;;;;;;3.23;2.80;;;15.90;99.90;;;;;;5058877;28;20452;-73
2021/09/20 08:50:16;;;;;;;4.80;2.70;;;16.00;99.90;;;;;;5059687;28;20588;-73
2021/09/20 08:52:44;;;;;;;4.83;2.77;;;16.00;99.90;;;;;;5058778;28;20467;-73
2021/09/20 08:55:11;;;;;;;3.10;2.70;;;16.10;99.90;;;;;;5058903;28;20497;-73
2021/09/20 08:57:38;;;;;;;5.33;2.40;;;16.10;23.40;;;;;;5059240;28;20455;-72
2021/09/20 09:00:07;;;;;;;6.53;2.90;;;16.20;5.00;;;;;;5058334;28;20467;-73
2021/09/20 09:02:34;;;;;;;2.73;2.53;;;16.20;1.00;;;;;;5058247;28;20815;-72
2021/09/20 09:05:14;;;;;;;2.70;2.50;;;16.30;1.00;;;;;;5058608;28;20456;-72
2021/09/20 09:07:43;;;;;;;3.53;2.77;;;16.40;1.00;;;;;;5059283;28;20965;-71
2021/09/20 09:10:10;;;;;;;3.07;2.60;;;16.40;1.00;;;;;;5059331;28;20952;-73
2021/09/20 09:12:37;;;;;;;3.00;2.50;;;16.50;1.00;;;;;;5056892;28;20460;-73
2021/09/20 09:15:06;;;;;;;3.27;2.50;;;16.60;1.00;;;;;;5056555;28;20483;-72
2021/09/20 09:17:37;;;;;;;5.50;3.20;;;16.60;1.00;;;;;;5058437;28;20474;-71
2021/09/20 09:20:08;;;;;;;6.00;2.27;;;16.70;1.00;;;;;;5054863;28;20510;-72
2021/09/20 09:22:43;;;;;;;4.27;2.73;;;16.70;1.00;;;;;;5055178;28;20530;-71
2021/09/20 09:25:12;;;;;;;4.37;2.70;;;16.70;1.00;;;;;;5054862;28;20448;-71
2021/09/20 09:27:40;;;;;;;3.00;2.70;;;16.70;1.00;;;;;;5054568;28;20924;-74
2021/09/20 09:30:17;;;;;;;3.10;2.57;;;16.80;1.00;;;;;;5054832;28;20461;-72
2021/09/20 09:32:46;;;;;;;4.30;2.67;;;16.80;1.00;;;;;;5055009;28;20534;-72
2021/09/20 09:35:14;;;;;;;2.93;2.37;;;16.80;1.00;;;;;;5054933;28;20455;-72
2021/09/20 09:37:45;;;;;;;4.43;2.80;;;16.80;99.90;;;;;;5054412;28;20462;-72
2021/09/20 09:40:15;;;;;;;4.73;2.70;;;16.90;99.90;;;;;;5054592;28;20460;-72
2021/09/20 09:42:43;;;;;;;2.80;2.43;;;16.90;99.90;;;;;;5054411;28;20478;-72
2021/09/20 09:45:29;;;;;;;5.40;2.50;;;16.80;99.90;;;;;;5054496;28;20532;-72
2021/09/20 09:48:09;;;;;;;2.70;2.40;;;16.80;99.90;;;;;;5055054;28;20444;-71
2021/09/20 09:50:40;;;;;;;4.20;3.40;;;16.80;99.90;;;;;;5054904;28;20447;-71
2021/09/20 09:53:21;;;;;;;6.40;3.10;;;16.90;99.90;;;;;;5054368;28;20450;-71
2021/09/20 09:55:47;;;;;;;4.50;2.87;;;16.90;99.90;;;;;;5054095;28;20454;-73
2021/09/20 09:58:19;;;;;;;7.77;3.00;;;16.90;99.90;;;;;;5054212;28;20456;-71
2021/09/20 10:00:48;;;;;;;3.03;2.40;;;17.00;99.90;;;;;;5054020;28;20450;-72
2021/09/20 10:03:15;;;;;;;5.33;2.50;;;16.90;99.90;;;;;;5053804;28;20549;-71
2021/09/20 10:05:56;;;;;;;3.60;2.73;;;17.00;99.90;;;;;;5054330;28;20456;-72
2021/09/20 10:08:26;;;;;;;4.13;2.33;;;17.00;99.90;;;;;;5054746;28;20828;-73
2021/09/20 10:10:55;;;;;;;2.23;2.03;;;17.10;99.90;;;;;;5055562;28;20459;-71
2021/09/20 10:13:24;;;;;;;3.07;2.53;;;17.10;99.90;;;;;;5054128;28;20482;-71
2021/09/20 10:15:52;;;;;;;3.50;2.10;;;17.20;99.90;;;;;;5053986;28;20510;-71
2021/09/20 10:18:19;;;;;;;3.53;2.23;;;17.30;99.90;;;;;;5054006;28;20459;-71
2021/09/20 10:20:47;;;;;;;3.70;2.40;;;17.30;99.90;;;;;;5054040;28;20462;-71
2021/09/20 10:23:14;;;;;;;3.03;2.13;;;17.30;99.90;;;;;;5054246;28;20570;-70
2021/09/20 10:25:42;;;;;;;3.87;2.30;;;17.30;99.90;;;;;;5054122;28;20467;-70
2021/09/20 10:28:11;;;;;;;4.80;2.03;;;17.40;99.90;;;;;;5054411;28;20466;-72
2021/09/20 10:30:39;;;;;;;3.90;3.10;;;17.30;99.90;;;;;;5053722;28;20589;-71
2021/09/20 10:33:08;;;;;;;5.33;2.30;;;17.20;99.90;;;;;;5053738;28;20513;-71
2021/09/20 10:35:36;;;;;;;4.33;2.57;;;17.20;99.90;;;;;;5053612;28;20456;-71
2021/09/20 10:38:28;;;;;;;4.63;2.90;;;17.10;99.90;;;;;;5054202;28;20470;-71
2021/09/20 10:41:12;;;;;;;4.00;2.87;;;17.10;99.90;;;;;;5053293;28;20448;-72
2021/09/20 10:43:41;;;;;;;3.83;3.10;;;17.00;99.90;;;;;;5054042;28;20467;-71
2021/09/20 10:46:20;;;;;;;4.17;3.30;;;17.00;99.90;;;;;;5053448;28;20478;-72
2021/09/20 10:48:50;;;;;;;3.90;3.00;;;16.90;99.90;;;;;;5053774;28;20896;-71
2021/09/20 10:51:21;;;;;;;3.30;2.70;;;16.90;99.90;;;;;;5055191;28;20455;-71
2021/09/20 10:53:48;;;;;;;2.83;2.53;;;16.90;99.90;;;;;;5053877;28;20443;-71
2021/09/20 10:56:24;;;;;;;3.83;2.73;;;17.00;99.90;;;;;;5053195;28;20554;-71
2021/09/20 10:59:16;;;;;;;4.33;3.27;;;17.00;99.90;;;;;;5054093;28;20534;-71
2021/09/20 11:01:44;;;;;;;8.00;2.60;;;17.00;99.90;;;;;;5057288;28;20934;-71
2021/09/20 11:04:17;;;;;;;3.85;2.15;;;17.00;99.90;;;;;;5057163;28;20491;-71
2021/09/20 11:07:03;;;;;;;3.90;2.50;;;17.00;99.90;;;;;;5057736;28;20205;-71
2021/09/20 11:09:42;;;;;;;3.47;2.60;;;17.00;99.90;;;;;;5057193;28;20450;-71
2021/09/20 11:12:14;;;;;;;2.57;2.30;;;16.90;99.90;;;;;;5059443;28;20550;-71
2021/09/20 11:14:52;;;;;;;5.43;3.00;;;16.90;99.90;;;;;;5057276;28;20774;-72
2021/09/20 11:17:48;;;;;;;4.23;2.57;;;16.90;99.90;;;;;;5057025;28;20444;-71
2021/09/20 11:20:36;;;;;;;3.07;2.77;;;16.80;99.90;;;;;;5057120;28;20455;-70
2021/09/20 11:23:24;;;;;;;2.90;2.37;;;16.80;99.90;;;;;;5057369;28;20483;-70
2021/09/20 11:26:10;;;;;;;5.57;2.77;;;16.70;99.90;;;;;;5056989;28;20721;-72
2021/09/20 11:28:42;;;;;;;3.80;2.90;;;16.70;99.90;;;;;;5057294;28;20447;-72
2021/09/20 11:31:09;;;;;;;3.07;2.20;;;16.70;99.90;;;;;;5056606;28;20535;-71
2021/09/20 11:33:39;;;;;;;3.03;2.37;;;16.80;99.90;;;;;;5056768;28;20784;-72
2021/09/20 11:36:17;;;;;;;2.87;2.50;;;16.80;99.90;;;;;;5056770;28;20459;-72
2021/09/20 11:38:44;;;;;;;6.20;2.97;;;16.90;99.90;;;;;;5056612;28;20513;-71
2021/09/20 11:41:22;;;;;;;5.40;2.97;;;16.90;99.90;;;;;;5056843;28;20525;-72
2021/09/20 11:43:51;;;;;;;3.03;2.73;;;16.90;99.90;;;;;;5056433;28;20463;-72
2021/09/20 11:46:19;;;;;;;3.90;2.50;;;17.00;99.90;;;;;;5056866;28;20467;-71
2021/09/20 11:48:46;;;;;;;3.30;2.67;;;17.10;99.90;;;;;;5056399;28;20535;-71
2021/09/20 11:51:13;;;;;;;4.07;2.80;;;17.10;99.90;;;;;;5057077;28;20460;-70
2021/09/20 11:53:39;;;;;;;4.40;2.77;;;17.10;99.90;;;;;;5056302;28;20888;-71
2021/09/20 11:56:06;;;;;;;3.17;2.83;;;17.20;99.90;;;;;;5056254;28;20463;-72
2021/09/20 11:58:33;;;;;;;7.13;3.37;;;17.20;99.90;;;;;;5056349;28;20525;-71
2021/09/20 12:01:03;;;;;;;3.60;2.93;;;17.30;99.90;;;;;;5056376;28;20467;-71
2021/09/20 12:03:30;;;;;;;3.53;2.80;;;17.40;99.90;;;;;;5056298;28;20501;-72
2021/09/20 12:06:01;;;;;;;2.90;2.70;;;17.50;99.90;;;;;;5056205;28;20459;-71
2021/09/20 12:08:30;;;;;;;3.00;2.80;;;17.50;99.90;;;;;;5056372;28;20448;-71
2021/09/20 12:11:00;;;;;;;5.60;3.03;;;17.60;99.90;;;;;;5055123;28;20909;-71
2021/09/20 12:13:29;;;;;;;2.30;2.10;;;17.70;99.90;;;;;;5055991;28;20451;-71
2021/09/20 12:16:02;;;;;;;5.57;3.27;;;17.80;99.90;;;;;;5055489;28;20485;-70
2021/09/20 12:18:30;;;;;;;4.03;3.53;;;17.90;99.90;;;;;;5056802;28;20756;-71
2021/09/20 12:21:00;;;;;;;4.83;3.10;;;18.00;99.90;;;;;;5055812;28;20799;-70
2021/09/20 12:23:29;;;;;;;4.33;2.70;;;18.10;99.90;;;;;;5055661;28;20476;-70
2021/09/20 12:25:57;;;;;;;5.33;3.40;;;18.20;99.90;;;;;;5055650;28;20931;-70
2021/09/20 12:28:27;;;;;;;4.33;3.43;;;18.30;99.90;;;;;;5056199;28;20554;-70
2021/09/20 12:31:05;;;;;;;6.20;2.47;;;18.40;99.90;;;;;;5056598;28;20453;-70
2021/09/20 12:33:52;;;;;;;2.87;2.57;;;18.50;99.90;;;;;;5056215;28;20475;-70
2021/09/20 12:36:21;;;;;;;4.10;3.40;;;18.60;99.90;;;;;;5056246;28;20443;-70
2021/09/20 12:38:59;;;;;;;3.67;3.17;;;18.60;99.90;;;;;;5056056;28;20438;-71
2021/09/20 12:41:32;;;;;;;2.77;2.47;;;18.70;99.90;;;;;;5055991;28;20442;-71
2021/09/20 12:43:59;;;;;;;3.27;2.50;;;18.80;99.90;;;;;;5055512;28;20464;-71
2021/09/20 12:46:28;;;;;;;5.67;3.67;;;18.80;99.90;;;;;;5055730;28;20473;-71
2021/09/20 12:48:57;;;;;;;3.20;2.90;;;18.90;99.90;;;;;;5055898;28;20557;-71
2021/09/20 12:51:26;;;;;;;3.90;2.40;;;18.90;99.90;;;;;;5054961;28;20922;-71
2021/09/20 12:53:54;;;;;;;3.27;2.30;;;19.00;99.90;;;;;;5055413;28;20930;-71
2021/09/20 12:56:31;;;;;;;2.90;2.50;;;19.00;99.90;;;;;;5055696;28;20745;-71